Private Wetterstation Grnau im Almtal
www.gruenau.tv

Wetterdaten: aktuell Dienstag, 02.03.2021 12:35
Datum Zeit Temperatur Temp. min Temp. max Luftfeuchte Luftdruck Regen Wind Richtung Richtung Sonne ET UV Solar Taupunkt Windchill Windben
02.03.2021 12:35 5,6 C 5,6 C 5,8 C 81 % 1033,9 hPa 0,0 l/m 10,0 km/h (2 Bft) N-NW 332 60 min 0,203 mm 2,4 UV-I 570 W/m 2,6 C 2,7 C 20,9 km/h (4 Bft)
02.03.2021 11:35 4,3 C 3,9 C 4,3 C 80 % 1034,4 hPa 0,2 l/m 4,9 km/h (1 Bft) NW 310 35 min 0,076 mm 2,3 UV-I 559 W/m 1,2 C 4,3 C 9,7 km/h (2 Bft)
02.03.2021 10:35 0,8 C 0,8 C 0,8 C 79 % 1034,6 hPa 0,0 l/m 3,5 km/h (1 Bft) N-NW 340 0 min 0,051 mm 1,1 UV-I 274 W/m -2,4 C 0,8 C 6,4 km/h (2 Bft)
02.03.2021 09:35 0,0 C -0,2 C 0,0 C 81 % 1034,5 hPa 0,0 l/m 1,1 km/h (1 Bft) N 8 0 min 0,051 mm 0,0 UV-I 142 W/m -2,9 C 0,0 C 4,8 km/h (1 Bft)
02.03.2021 08:35 -1,5 C -1,7 C -1,5 C 82 % 1034,0 hPa 0,0 l/m 3,1 km/h (1 Bft) N-NO 20 25 min 0,000 mm 0,0 UV-I 153 W/m -4,2 C -1,5 C 4,8 km/h (1 Bft)
02.03.2021 07:35 -3,1 C -3,2 C -3,1 C 84 % 1033,3 hPa 0,0 l/m 0,0 km/h (0 Bft) S-SO 166 0 min 0,000 mm 0,0 UV-I 18 W/m -5,4 C -3,1 C 0,0 km/h (0 Bft)
02.03.2021 06:35 -2,1 C -2,3 C -2,1 C 83 % 1032,8 hPa 0,0 l/m 2,0 km/h (1 Bft) W-NW 292 0 min 0,000 mm 0,0 UV-I 0 W/m -4,6 C -2,1 C 6,4 km/h (2 Bft)
02.03.2021 05:35 -2,6 C -2,6 C -2,4 C 84 % 1032,9 hPa 0,0 l/m 0,6 km/h (0 Bft) S-SW 211 0 min 0,000 mm 0,0 UV-I 0 W/m -4,9 C -2,6 C 1,6 km/h (1 Bft)
02.03.2021 04:35 -1,1 C -1,1 C -1,1 C 83 % 1032,6 hPa 0,0 l/m 1,2 km/h (1 Bft) SO 137 0 min 0,000 mm 0,0 UV-I 0 W/m -3,6 C -1,1 C 3,2 km/h (1 Bft)
02.03.2021 03:35 -2,1 C -2,1 C -2,0 C 84 % 1032,8 hPa 0,0 l/m 0,4 km/h (0 Bft) O 88 0 min 0,000 mm 0,0 UV-I 0 W/m -4,4 C -2,1 C 3,2 km/h (1 Bft)
02.03.2021 02:35 -1,4 C -1,5 C -1,4 C 84 % 1033,2 hPa 0,0 l/m 0,4 km/h (0 Bft) O-SO 122 0 min 0,000 mm 0,0 UV-I 0 W/m -3,7 C -1,4 C 3,2 km/h (1 Bft)
02.03.2021 01:35 -1,3 C -1,3 C -1,3 C 85 % 1033,5 hPa 0,0 l/m 0,0 km/h (0 Bft) S-SW 201 0 min 0,000 mm 0,0 UV-I 0 W/m -3,5 C -1,3 C 0,0 km/h (0 Bft)
02.03.2021 00:35 -0,1 C -0,2 C 0,0 C 85 % 1033,4 hPa 0,0 l/m 0,9 km/h (0 Bft) S-SO 147 0 min 0,000 mm 0,0 UV-I 0 W/m -2,3 C -0,1 C 4,8 km/h (1 Bft)
01.03.2021 23:35 0,1 C 0,1 C 0,1 C 85 % 1033,3 hPa 0,0 l/m 0,3 km/h (0 Bft) O-SO 112 0 min 0,000 mm 0,0 UV-I 0 W/m -2,1 C 0,1 C 1,6 km/h (1 Bft)
01.03.2021 22:35 0,9 C 0,9 C 1,0 C 85 % 1033,4 hPa 0,0 l/m 1,7 km/h (1 Bft) O-SO 107 0 min 0,000 mm 0,0 UV-I 0 W/m -1,3 C 0,9 C 4,8 km/h (1 Bft)
01.03.2021 21:35 1,7 C 1,7 C 1,8 C 85 % 1033,3 hPa 0,0 l/m 2,0 km/h (1 Bft) S 170 0 min 0,000 mm 0,0 UV-I 0 W/m -0,5 C 1,7 C 6,4 km/h (2 Bft)
01.03.2021 20:35 1,9 C 1,9 C 2,2 C 84 % 1033,2 hPa 0,0 l/m 0,1 km/h (0 Bft) O 83 0 min 0,000 mm 0,0 UV-I 0 W/m -0,5 C 1,9 C 1,6 km/h (1 Bft)
01.03.2021 19:35 3,3 C 3,3 C 3,5 C 83 % 1032,7 hPa 0,0 l/m 0,0 km/h (0 Bft) O 83 0 min 0,000 mm 0,0 UV-I 0 W/m 0,7 C 3,3 C 0,0 km/h (0 Bft)
01.03.2021 18:35 5,5 C 5,5 C 5,7 C 78 % 1032,5 hPa 0,0 l/m 0,3 km/h (0 Bft) O 83 0 min 0,025 mm 0,0 UV-I 0 W/m 2,0 C 5,5 C 1,6 km/h (1 Bft)
01.03.2021 17:35 8,3 C 8,3 C 8,4 C 70 % 1031,8 hPa 0,0 l/m 0,7 km/h (0 Bft) N 4 0 min 0,077 mm 0,0 UV-I 9 W/m 3,2 C 8,3 C 3,2 km/h (1 Bft)
01.03.2021 16:35 10,1 C 10,1 C 10,3 C 67 % 1031,4 hPa 0,0 l/m 8,5 km/h (2 Bft) N-NO 16 60 min 0,203 mm 0,0 UV-I 107 W/m 4,3 C 8,6 C 12,9 km/h (3 Bft)
01.03.2021 15:35 10,8 C 10,8 C 10,9 C 65 % 1031,5 hPa 0,0 l/m 16,6 km/h (3 Bft) NW 306 60 min 0,254 mm 0,7 UV-I 283 W/m 4,5 C 5,5 C 24,1 km/h (4 Bft)
01.03.2021 14:35 11,3 C 11,2 C 11,3 C 61 % 1031,5 hPa 0,0 l/m 17,0 km/h (3 Bft) N-NW 344 60 min 0,279 mm 1,3 UV-I 417 W/m 4,1 C 6,0 C 25,7 km/h (4 Bft)
01.03.2021 13:35 10,3 C 10,2 C 10,4 C 63 % 1031,8 hPa 0,0 l/m 13,1 km/h (3 Bft) N-NW 330 35 min 0,280 mm 2,0 UV-I 513 W/m 3,6 C 6,3 C 25,7 km/h (4 Bft)
01.03.2021 13:00 9,6 C 9,5 C 9,6 C 66 % 1032,2 hPa 0,0 l/m 12,6 km/h (3 Bft) N 351 0 min 0,280 mm 2,2 UV-I 548 W/m 3,6 C 5,8 C 24,1 km/h (4 Bft)
_ Min-Zeit 07:05 07:05 07:10 14:20 16:15 - 17:45 - - - - - - 07:05 07:05 17:50
Minimum _ -3,4 C -3,4 C -3,4 C 61 % 1031,3 hPa - 0,0 km/h (0 Bft) - - - - - - -5,7 C -3,4 C 0,0 km/h (0 Bft)
_ Max-Zeit 14:25 14:35 14:25 20:50 11:00 11:10 14:55 - - 13:00 13:00 12:10 11:15 15:10 16:45 15:05
Maximum _ 11,3 C 11,2 C 11,3 C 85 % 1034,8 hPa 0,2 l/m 19,4 km/h
N-NW (3 Bft)
- - 5 min 0,280 mm 2,5 UV-I 578 W/m 4,6 C 9,7 C 32,2 km/h
NW (5 Bft)
Durchschnitt _ 2,9 C 2,9 C 3,0 C 78 % 1032,9 hPa #0,2 l/m 4,2 km/h (1 Bft) N-NW - #2:00 h #0,381 mm 1,7 UV-I 245 W/m -0,6 C 2,0 C 8,4 km/h (2 Bft)
Rauscher Max - www.gruenau.tv